createdAt,value
2024-04-30T00:02:24.243Z,99.90
2024-04-30T00:04:54.244Z,99.90
2024-04-30T00:07:21.529Z,99.90
2024-04-30T00:09:51.634Z,99.90
2024-04-30T00:12:19.034Z,99.90
2024-04-30T00:14:51.361Z,99.90
2024-04-30T00:17:18.746Z,99.90
2024-04-30T00:19:48.564Z,99.90
2024-04-30T00:22:15.928Z,99.90
2024-04-30T00:24:45.605Z,99.90
2024-04-30T00:27:12.802Z,99.90
2024-04-30T00:29:42.664Z,99.90
2024-04-30T00:32:12.369Z,99.90
2024-04-30T00:34:42.501Z,99.90
2024-04-30T00:37:09.780Z,99.90
2024-04-30T00:39:39.527Z,99.90
2024-04-30T00:42:07.442Z,99.90
2024-04-30T00:44:37.348Z,99.90
2024-04-30T00:47:05.005Z,99.90
2024-04-30T00:49:37.657Z,99.90
2024-04-30T00:52:05.551Z,99.90
2024-04-30T00:54:35.482Z,99.90
2024-04-30T00:57:02.893Z,99.90
2024-04-30T00:59:32.888Z,99.90
2024-04-30T01:02:00.944Z,99.90
2024-04-30T01:04:31.088Z,99.90
2024-04-30T01:07:01.113Z,99.90
2024-04-30T01:09:31.169Z,99.90
2024-04-30T01:11:58.633Z,99.90
2024-04-30T01:14:28.870Z,99.90
2024-04-30T01:16:56.111Z,99.90
2024-04-30T01:19:26.240Z,99.90
2024-04-30T01:21:53.451Z,99.90
2024-04-30T01:24:25.963Z,99.90
2024-04-30T01:26:54.985Z,99.90
2024-04-30T01:29:26.286Z,99.90
2024-04-30T01:31:53.533Z,99.90
2024-04-30T01:34:24.004Z,99.90
2024-04-30T01:36:51.168Z,99.90
2024-04-30T01:39:20.885Z,99.90
2024-04-30T01:41:50.947Z,99.90
2024-04-30T01:44:20.746Z,99.90
2024-04-30T01:46:47.924Z,99.90
2024-04-30T01:49:17.666Z,99.90
2024-04-30T01:51:44.743Z,99.90
2024-04-30T01:54:14.591Z,99.90
2024-04-30T01:56:41.836Z,99.90
2024-04-30T01:59:14.314Z,99.90
2024-04-30T02:01:41.558Z,99.90
2024-04-30T02:04:11.373Z,99.90
2024-04-30T02:06:38.607Z,99.90
2024-04-30T02:09:09.793Z,99.90
2024-04-30T02:11:37.355Z,99.90
2024-04-30T02:14:07.568Z,99.90
2024-04-30T02:16:37.763Z,99.90
2024-04-30T02:19:07.940Z,99.90
2024-04-30T02:21:35.181Z,99.90
2024-04-30T02:24:05.084Z,99.90
2024-04-30T02:26:32.450Z,99.90
2024-04-30T02:29:02.330Z,99.90
2024-04-30T02:31:48.396Z,99.90
2024-04-30T02:34:26.675Z,99.90
2024-04-30T02:36:58.067Z,99.90
2024-04-30T02:39:28.270Z,99.90
2024-04-30T02:41:58.037Z,99.90
2024-04-30T02:44:25.238Z,99.90
2024-04-30T02:46:54.973Z,99.90
2024-04-30T02:49:24.887Z,99.90
2024-04-30T02:51:54.715Z,99.90
2024-04-30T02:54:22.091Z,99.90
2024-04-30T02:56:52.084Z,99.90
2024-04-30T02:59:19.334Z,99.90
2024-04-30T03:01:49.191Z,99.90
2024-04-30T03:04:16.845Z,99.90
2024-04-30T03:06:49.366Z,99.90
2024-04-30T03:09:16.780Z,99.90
2024-04-30T03:11:46.844Z,99.90
2024-04-30T03:14:14.209Z,99.90
2024-04-30T03:16:47.420Z,99.90
2024-04-30T03:19:14.588Z,99.90
2024-04-30T03:21:44.267Z,99.90
2024-04-30T03:24:14.046Z,99.90
2024-04-30T03:26:44.930Z,99.90
2024-04-30T03:29:12.144Z,99.90
2024-04-30T03:31:41.905Z,99.90
2024-04-30T03:34:09.201Z,99.90
2024-04-30T03:36:38.987Z,99.90
2024-04-30T03:39:08.691Z,99.90
2024-04-30T03:41:41.424Z,99.90
2024-04-30T03:44:11.458Z,99.90
2024-04-30T03:46:41.407Z,99.90
2024-04-30T03:49:11.556Z,99.90
2024-04-30T03:51:41.484Z,99.90
2024-04-30T03:54:09.063Z,99.90
2024-04-30T03:56:41.444Z,99.90
2024-04-30T03:59:08.775Z,99.90
2024-04-30T04:01:39.030Z,99.90
2024-04-30T04:04:06.656Z,99.90
2024-04-30T04:06:36.602Z,99.90
2024-04-30T04:09:03.978Z,99.90
2024-04-30T04:11:49.746Z,99.90
2024-04-30T04:14:38.218Z,99.90
2024-04-30T04:17:08.382Z,99.90
2024-04-30T04:19:39.576Z,99.90
2024-04-30T04:22:09.562Z,99.90
2024-04-30T04:24:39.393Z,99.90
2024-04-30T04:27:07.125Z,99.90
2024-04-30T04:29:39.667Z,99.90
2024-04-30T04:32:09.846Z,99.90
2024-04-30T04:34:38.184Z,99.90
2024-04-30T04:37:08.271Z,99.90
2024-04-30T04:39:35.898Z,99.90
2024-04-30T04:42:06.098Z,99.90
2024-04-30T04:44:33.541Z,99.90
2024-04-30T04:47:06.682Z,99.90
2024-04-30T04:49:33.891Z,99.90
2024-04-30T04:52:03.941Z,99.90
2024-04-30T04:54:31.490Z,99.90
2024-04-30T04:57:01.774Z,99.90
2024-04-30T04:59:28.923Z,99.90
2024-04-30T05:01:59.086Z,99.90
2024-04-30T05:04:29.200Z,99.90
2024-04-30T05:07:01.053Z,99.90
2024-04-30T05:09:29.780Z,99.90
2024-04-30T05:11:59.953Z,99.90
2024-04-30T05:14:28.149Z,99.90
2024-04-30T05:16:58.031Z,99.90
2024-04-30T05:19:25.517Z,99.90
2024-04-30T05:21:58.158Z,99.90
2024-04-30T05:24:27.575Z,99.90
2024-04-30T05:26:57.370Z,99.90
2024-04-30T05:29:24.515Z,99.90
2024-04-30T05:31:54.394Z,99.90
2024-04-30T05:34:21.671Z,99.90
2024-04-30T05:36:51.914Z,99.90
2024-04-30T05:39:21.814Z,99.90
2024-04-30T05:41:51.831Z,99.90
2024-04-30T05:44:19.086Z,99.90
2024-04-30T05:46:49.001Z,99.90
2024-04-30T05:49:17.920Z,99.90
2024-04-30T05:51:47.657Z,99.90
2024-04-30T05:54:15.059Z,99.90
2024-04-30T05:56:47.655Z,99.90
2024-04-30T05:59:14.922Z,99.90
2024-04-30T06:01:44.967Z,99.90
2024-04-30T06:04:12.803Z,99.90
2024-04-30T06:06:42.644Z,99.90
2024-04-30T06:09:09.955Z,99.90
2024-04-30T06:11:39.949Z,99.90
2024-04-30T06:14:09.969Z,99.90
2024-04-30T06:16:40.118Z,99.90
2024-04-30T06:19:07.460Z,99.90
2024-04-30T06:21:39.064Z,99.90
2024-04-30T06:24:09.883Z,99.90
2024-04-30T06:26:37.377Z,99.90
2024-04-30T06:29:07.591Z,99.90
2024-04-30T06:31:38.091Z,99.90
2024-04-30T06:34:08.053Z,99.90
2024-04-30T06:36:35.407Z,99.90
2024-04-30T06:39:05.323Z,99.90
2024-04-30T06:41:32.575Z,99.90
2024-04-30T06:44:02.796Z,99.90
2024-04-30T06:49:14.733Z,99.90
2024-04-30T06:51:41.939Z,99.90
2024-04-30T06:54:11.786Z,99.90
2024-04-30T06:56:38.978Z,99.90
2024-04-30T06:59:08.708Z,99.90
2024-04-30T07:01:36.450Z,99.90
2024-04-30T07:04:06.323Z,99.90
2024-04-30T07:06:36.370Z,99.90
2024-04-30T07:09:06.530Z,99.90
2024-04-30T07:11:33.930Z,99.90
2024-04-30T07:14:03.936Z,99.90
2024-04-30T07:16:31.232Z,99.90
2024-04-30T07:19:00.962Z,99.90
2024-04-30T07:21:28.117Z,99.90
2024-04-30T07:24:03.681Z,99.90
2024-04-30T07:26:31.287Z,99.90
2024-04-30T07:29:01.142Z,99.90
2024-04-30T07:31:28.397Z,99.90
2024-04-30T07:33:58.502Z,99.90
2024-04-30T07:36:25.950Z,99.90
2024-04-30T07:38:56.302Z,99.90
2024-04-30T07:41:26.217Z,99.90
2024-04-30T07:43:56.219Z,99.90
2024-04-30T07:46:23.596Z,99.90
2024-04-30T07:48:55.359Z,99.90
2024-04-30T07:51:22.924Z,99.90
2024-04-30T07:53:53.001Z,99.90
2024-04-30T07:56:20.262Z,99.90
2024-04-30T07:58:53.209Z,99.90
2024-04-30T08:01:22.191Z,99.90
2024-04-30T08:03:52.411Z,99.90
2024-04-30T08:06:21.110Z,99.90
2024-04-30T08:08:51.456Z,99.90
2024-04-30T08:11:22.943Z,99.90
2024-04-30T08:13:55.585Z,99.90
2024-04-30T08:16:23.013Z,99.90
2024-04-30T08:18:54.421Z,99.90
2024-04-30T08:21:22.043Z,99.90
2024-04-30T08:23:52.090Z,99.90
2024-04-30T08:26:19.348Z,99.90
2024-04-30T08:28:49.887Z,99.90
2024-04-30T08:31:22.821Z,99.90
2024-04-30T08:33:50.322Z,99.90
2024-04-30T08:36:25.749Z,99.90
2024-04-30T08:38:55.684Z,99.90
2024-04-30T08:41:27.823Z,99.90
2024-04-30T08:43:58.270Z,99.90
2024-04-30T08:46:32.978Z,99.90
2024-04-30T08:49:02.175Z,99.90
2024-04-30T08:51:33.532Z,99.90
2024-04-30T08:54:02.186Z,99.90
2024-04-30T08:56:32.635Z,99.90
2024-04-30T08:59:00.252Z,99.90
2024-04-30T10:50:16.650Z,98.50
2024-04-30T10:52:46.982Z,99.40
2024-04-30T10:55:19.095Z,91.70
2024-04-30T10:57:46.653Z,91.30
2024-04-30T11:00:16.840Z,92.70
2024-04-30T11:02:50.564Z,91.30
2024-04-30T11:05:23.971Z,91.60
2024-04-30T11:07:59.773Z,91.30
2024-04-30T11:10:28.980Z,90.80
2024-04-30T11:13:04.571Z,90.50
2024-04-30T11:15:33.437Z,91.10
2024-04-30T11:18:03.877Z,91.00
2024-04-30T11:20:34.270Z,90.10
2024-04-30T11:23:04.819Z,90.40
2024-04-30T11:25:32.215Z,91.40
2024-04-30T11:28:02.706Z,91.30
2024-04-30T11:30:29.978Z,91.80
